Welcome to Northern Hawkes Bay. New Zealand.
PWS Header
      nz Flag



Hit Counter


W3C Valid W3C Valid logo


    Wairoa

Select any of the Stations below to visit their websites.










Historic Data from Weather Underground
Select the location of interest below. Wairoa is the default. Please have patience, this Data is slow to load in.
Northern Hawkes Bay Historical Data
Daily Summary for January 19, 2017 Units:  Metric    English   Both
« Previous Day
Next Day »
Daily Weekly Monthly Yearly Custom
  High: Low: Average:
Temperature: 25.1 °C 12.6 °C 16.2 °C
Dew Point: 11.3 °C 3.3 °C 8 °C
Humidity: 91% 26% 60%
Wind Speed: 29.4km/h 0.0km/h 11km/h
Wind Gust: 42.8km/h - -
Wind- - West
Pressure: 1009.4 hPa 991.4 hPa -
Precipitation: 0.3 mm    
Historical Graphs
 
 
Tabular Data for January 19, 2017
Time Temperature Dew Point Pressure Wind Wind Speed Wind Gust Humidity Rainfall Rate (Hourly) solar
00:01 25.1 °C 4.3 °C 991.8 hPa NW 15.8 km/h 29.4 km/h 26% 0.0 mm 362 W/m2
00:06 24.5 °C 4.3 °C 991.8 hPa NW 15.8 km/h 30.6 km/h 27% 0.0 mm 347 W/m2
00:11 24.4 °C 4.7 °C 991.4 hPa NW 12.2 km/h 30.6 km/h 28% 0.0 mm 331 W/m2
00:16 24.6 °C 5.4 °C 991.8 hPa NW 20.9 km/h 30.6 km/h 29% 0.0 mm 311 W/m2
00:21 24.6 °C 5.9 °C 991.8 hPa NW 11.1 km/h 27.0 km/h 30% 0.0 mm 295 W/m2
00:27 24.5 °C 5.3 °C 991.8 hPa NW 15.8 km/h 29.4 km/h 29% 0.0 mm 277 W/m2
00:32 24.1 °C 4.9 °C 991.8 hPa NW 11.1 km/h 30.6 km/h 29% 0.0 mm 269 W/m2
00:37 24.0 °C 4.9 °C 991.8 hPa NW 15.8 km/h 30.6 km/h 29% 0.0 mm 259 W/m2
00:42 23.6 °C 5.9 °C 991.8 hPa NW 18.3 km/h 36.7 km/h 32% 0.0 mm 248 W/m2
00:47 23.4 °C 4.8 °C 991.8 hPa NW 21.9 km/h 36.7 km/h 30% 0.0 mm 228 W/m2
00:52 23.2 °C 4.2 °C 991.8 hPa NW 18.3 km/h 36.7 km/h 29% 0.0 mm 219 W/m2
00:57 23.4 °C 4.8 °C 991.8 hPa NNW 21.9 km/h 34.3 km/h 30% 0.0 mm 147 W/m2
01:02 22.6 °C 4.6 °C 991.8 hPa NNW 21.9 km/h 39.3 km/h 31% 0.0 mm 58 W/m2
01:07 22.1 °C 4.2 °C 992.1 hPa NW 21.9 km/h 42.8 km/h 31% 0.0 mm 54 W/m2
01:12 22.0 °C 4.1 °C 992.1 hPa NW 18.3 km/h 42.8 km/h 31% 0.0 mm 60 W/m2
01:17 21.9 °C 4.5 °C 992.1 hPa NNW 17.2 km/h 35.6 km/h 32% 0.0 mm 57 W/m2
01:22 21.8 °C 3.9 °C 992.4 hPa NNW 20.9 km/h 36.7 km/h 31% 0.0 mm 130 W/m2
01:27 22.2 °C 3.3 °C 992.4 hPa NNW 17.2 km/h 36.7 km/h 29% 0.0 mm 129 W/m2
01:32 22.0 °C 3.7 °C 992.4 hPa NW 19.5 km/h 34.3 km/h 30% 0.0 mm 48 W/m2
01:37 21.6 °C 4.2 °C 992.8 hPa NNW 15.8 km/h 30.6 km/h 32% 0.0 mm 69 W/m2
01:42 21.4 °C 3.6 °C 992.8 hPa NNW 19.5 km/h 30.6 km/h 31% 0.0 mm 97 W/m2
01:47 21.6 °C 3.8 °C 992.8 hPa NNW 14.8 km/h 28.0 km/h 31% 0.0 mm 95 W/m2
01:52 21.6 °C 4.2 °C 992.8 hPa NW 12.2 km/h 28.0 km/h 32% 0.0 mm 83 W/m2
01:57 21.4 °C 4.1 °C 993.1 hPa NW 13.4 km/h 27.0 km/h 32% 0.0 mm 71 W/m2
02:02 21.4 °C 4.1 °C 992.8 hPa NW 18.3 km/h 25.6 km/h 32% 0.0 mm 59 W/m2
02:07 21.2 °C 3.9 °C 993.1 hPa NW 11.1 km/h 24.5 km/h 32% 0.0 mm 46 W/m2
02:13 21.1 °C 4.2 °C 993.1 hPa NNW 7.2 km/h 25.6 km/h 33% 0.0 mm 33 W/m2
02:18 20.7 °C 4.3 °C 993.5 hPa NW 7.2 km/h 25.6 km/h 34% 0.0 mm 14 W/m2
02:23 20.3 °C 4.3 °C 993.5 hPa NW 8.7 km/h 20.9 km/h 35% 0.0 mm 11 W/m2
02:28 20.0 °C 4.5 °C 993.5 hPa NW 8.7 km/h 17.2 km/h 36% 0.0 mm 7 W/m2
02:33 19.8 °C 4.7 °C 993.5 hPa NW 14.8 km/h 24.5 km/h 37% 0.0 mm 4 W/m2
02:38 19.8 °C 4.7 °C 993.5 hPa NW 18.3 km/h 33.1 km/h 37% 0.0 mm 2 W/m2
02:43 19.7 °C 4.6 °C 993.5 hPa NW 14.8 km/h 33.1 km/h 37% 0.0 mm 0 W/m2
02:48 19.5 °C 4.4 °C 993.5 hPa NW 24.5 km/h 33.1 km/h 37% 0.0 mm 0 W/m2
02:53 19.5 °C 4.4 °C 993.5 hPa NW 14.8 km/h 34.3 km/h 37% 0.0 mm 0 W/m2
02:58 19.4 °C 4.7 °C 993.5 hPa NW 15.8 km/h 34.3 km/h 38% 0.0 mm 0 W/m2
03:03 19.3 °C 4.6 °C 993.8 hPa WNW 13.4 km/h 30.6 km/h 38% 0.0 mm 0 W/m2
03:08 19.2 °C 4.6 °C 993.5 hPa WNW 18.3 km/h 29.4 km/h 38% 0.0 mm 0 W/m2
03:13 19.2 °C 4.6 °C 993.8 hPa NW 14.8 km/h 30.6 km/h 38% 0.0 mm 0 W/m2
03:33 18.9 °C 5.4 °C 994.1 hPa NW 9.7 km/h 31.7 km/h 41% 0.0 mm 0 W/m2
03:38 18.7 °C 5.6 °C 994.8 hPa NW 11.1 km/h 28.0 km/h 42% 0.0 mm 0 W/m2
03:43 18.6 °C 5.4 °C 994.5 hPa NNW 13.4 km/h 27.0 km/h 42% 0.0 mm 0 W/m2
03:48 18.6 °C 5.8 °C 994.5 hPa North 18.3 km/h 27.0 km/h 43% 0.0 mm 0 W/m2
03:53 18.5 °C 6.0 °C 994.8 hPa NNW 12.2 km/h 24.5 km/h 44% 0.0 mm 0 W/m2
03:58 18.4 °C 6.3 °C 995.1 hPa NW 14.8 km/h 27.0 km/h 45% 0.0 mm 0 W/m2
04:03 18.4 °C 6.3 °C 994.8 hPa NNW 13.4 km/h 27.0 km/h 45% 0.0 mm 0 W/m2
04:08 18.3 °C 6.2 °C 995.1 hPa NNW 12.2 km/h 34.3 km/h 45% 0.0 mm 0 W/m2
04:13 18.3 °C 6.5 °C 995.5 hPa NNW 18.3 km/h 34.3 km/h 46% 0.0 mm 0 W/m2
04:18 18.2 °C 6.4 °C 995.5 hPa NW 8.7 km/h 29.4 km/h 46% 0.0 mm 0 W/m2
04:23 17.9 °C 6.1 °C 995.5 hPa NW 6.1 km/h 21.9 km/h 46% 0.0 mm 0 W/m2
04:28 17.7 °C 6.3 °C 995.8 hPa NW 8.7 km/h 14.8 km/h 47% 0.0 mm 0 W/m2
04:33 17.6 °C 6.4 °C 995.8 hPa NW 5.0 km/h 14.8 km/h 48% 0.0 mm 0 W/m2
04:38 17.4 °C 6.6 °C 995.8 hPa WNW 8.7 km/h 14.8 km/h 49% 0.0 mm 0 W/m2
04:43 17.4 °C 6.6 °C 995.5 hPa WNW 7.2 km/h 18.3 km/h 49% 0.0 mm 0 W/m2
04:48 17.4 °C 6.6 °C 995.5 hPa NW 12.2 km/h 18.3 km/h 49% 0.0 mm 0 W/m2
04:53 17.3 °C 6.8 °C 995.5 hPa NNW 9.7 km/h 17.2 km/h 50% 0.0 mm 0 W/m2
04:58 17.2 °C 6.7 °C 995.5 hPa NNW 12.2 km/h 21.9 km/h 50% 0.0 mm 0 W/m2
05:03 17.2 °C 7.0 °C 995.5 hPa NNW 7.2 km/h 21.9 km/h 51% 0.0 mm 0 W/m2
05:08 17.0 °C 6.8 °C 995.5 hPa NW 6.1 km/h 17.2 km/h 51% 0.0 mm 0 W/m2
05:13 16.9 °C 7.0 °C 995.8 hPa NW 6.1 km/h 17.2 km/h 52% 0.0 mm 0 W/m2
05:18 16.7 °C 7.1 °C 995.8 hPa NW 11.1 km/h 17.2 km/h 53% 0.0 mm 0 W/m2
05:23 16.7 °C 7.1 °C 995.8 hPa NNW 6.1 km/h 17.2 km/h 53% 0.0 mm 0 W/m2
05:28 16.5 °C 6.9 °C 995.8 hPa NNW 3.5 km/h 13.4 km/h 53% 0.0 mm 0 W/m2
05:33 16.4 °C 6.8 °C 995.8 hPa NW 5.0 km/h 12.2 km/h 53% 0.0 mm 0 W/m2
05:38 16.2 °C 6.9 °C 996.2 hPa NW 5.0 km/h 9.7 km/h 54% 0.0 mm 0 W/m2
05:43 16.1 °C 6.8 °C 996.2 hPa NW 5.0 km/h 9.7 km/h 54% 0.0 mm 0 W/m2
05:48 15.9 °C 7.2 °C 996.2 hPa NNW 7.2 km/h 12.2 km/h 56% 0.0 mm 0 W/m2
05:53 15.9 °C 7.2 °C 996.2 hPa NNW 6.1 km/h 12.2 km/h 56% 0.0 mm 0 W/m2
05:58 15.8 °C 7.1 °C 996.2 hPa NW 3.5 km/h 12.2 km/h 56% 0.0 mm 0 W/m2
06:03 15.8 °C 7.1 °C 996.2 hPa NNW 13.4 km/h 18.3 km/h 56% 0.0 mm 0 W/m2
06:08 16.0 °C 6.9 °C 996.2 hPa NW 3.5 km/h 19.5 km/h 55% 0.0 mm 0 W/m2
06:13 15.8 °C 7.1 °C 996.5 hPa NW 5.0 km/h 19.5 km/h 56% 0.0 mm 0 W/m2
06:18 15.5 °C 7.0 °C 996.5 hPa NW 3.5 km/h 7.2 km/h 57% 0.0 mm 0 W/m2
06:23 15.2 °C 7.0 °C 996.2 hPa NNW 6.1 km/h 8.7 km/h 58% 0.0 mm 0 W/m2
06:28 15.1 °C 7.2 °C 996.2 hPa NNW 5.0 km/h 8.7 km/h 59% 0.0 mm 0 W/m2
06:33 15.0 °C 7.3 °C 996.2 hPa NW 5.0 km/h 8.7 km/h 60% 0.0 mm 0 W/m2
06:38 15.0 °C 7.3 °C 996.2 hPa NNW 3.5 km/h 8.7 km/h 60% 0.0 mm 0 W/m2
06:43 15.0 °C 7.3 °C 996.2 hPa NW 5.0 km/h 9.7 km/h 60% 0.0 mm 0 W/m2
06:48 15.1 °C 7.2 °C 996.2 hPa NW 3.5 km/h 9.7 km/h 59% 0.0 mm 0 W/m2
06:53 15.1 °C 7.2 °C 996.5 hPa NW 2.6 km/h 9.7 km/h 59% 0.0 mm 0 W/m2
06:58 15.0 °C 7.1 °C 996.2 hPa NNW 1.1 km/h 7.2 km/h 59% 0.0 mm 0 W/m2
07:03 14.8 °C 7.3 °C 996.5 hPa North 3.5 km/h 6.1 km/h 61% 0.0 mm 0 W/m2
07:08 14.7 °C 7.5 °C 996.5 hPa NNW 6.1 km/h 8.7 km/h 62% 0.0 mm 0 W/m2
07:13 14.6 °C 7.7 °C 996.5 hPa NNW 5.0 km/h 9.7 km/h 63% 0.0 mm 0 W/m2
07:18 14.6 °C 7.7 °C 996.5 hPa North 7.2 km/h 11.1 km/h 63% 0.0 mm 0 W/m2
07:23 14.7 °C 7.7 °C 996.5 hPa North 7.2 km/h 12.2 km/h 63% 0.0 mm 0 W/m2
07:28 14.8 °C 7.6 °C 996.5 hPa North 11.1 km/h 14.8 km/h 62% 0.0 mm 0 W/m2
07:33 15.1 °C 7.4 °C 996.5 hPa North 8.7 km/h 14.8 km/h 60% 0.0 mm 0 W/m2
07:38 15.2 °C 7.2 °C 996.8 hPa NW 7.2 km/h 14.8 km/h 59% 0.0 mm 0 W/m2
07:43 15.1 °C 7.2 °C 996.5 hPa NW 8.7 km/h 14.8 km/h 59% 0.0 mm 0 W/m2
07:48 15.1 °C 7.4 °C 996.8 hPa NNW 11.1 km/h 14.8 km/h 60% 0.0 mm 0 W/m2
07:53 15.0 °C 7.3 °C 996.8 hPa NNW 8.7 km/h 14.8 km/h 60% 0.0 mm 0 W/m2
07:58 15.0 °C 7.3 °C 996.5 hPa NW 3.5 km/h 12.2 km/h 60% 0.0 mm 0 W/m2
08:03 14.8 °C 7.6 °C 996.5 hPa NW 3.5 km/h 11.1 km/h 62% 0.0 mm 0 W/m2
08:08 14.7 °C 7.7 °C 996.8 hPa NNW 3.5 km/h 9.7 km/h 63% 0.0 mm 0 W/m2
08:13 14.4 °C 7.7 °C 996.8 hPa West 2.6 km/h 7.2 km/h 64% 0.0 mm 0 W/m2
08:18 14.2 °C 7.5 °C 996.8 hPa West 2.6 km/h 7.2 km/h 64% 0.0 mm 0 W/m2
08:23 14.2 °C 7.5 °C 996.8 hPa NW 5.0 km/h 7.2 km/h 64% 0.0 mm 0 W/m2
08:28 14.2 °C 7.5 °C 996.8 hPa NW 5.0 km/h 8.7 km/h 64% 0.0 mm 0 W/m2
08:33 14.3 °C 7.6 °C 996.8 hPa NW 3.5 km/h 8.7 km/h 64% 0.0 mm 0 W/m2
08:38 14.2 °C 7.5 °C 996.8 hPa NW 3.5 km/h 8.7 km/h 64% 0.0 mm 0 W/m2
08:43 14.0 °C 7.6 °C 996.8 hPa NNW 1.1 km/h 6.1 km/h 65% 0.0 mm 0 W/m2
08:49 13.9 °C 7.7 °C 996.8 hPa NNW 2.6 km/h 5.0 km/h 66% 0.0 mm 0 W/m2
08:54 13.8 °C 7.8 °C 996.8 hPa Calm   3.5 km/h 67% 0.0 mm 0 W/m2
08:59 13.6 °C 7.6 °C 996.8 hPa Calm   3.5 km/h 67% 0.0 mm 0 W/m2
09:04 13.5 °C 7.5 °C 996.8 hPa Calm     67% 0.0 mm 0 W/m2
09:10 13.4 °C 7.6 °C 996.8 hPa North 1.1 km/h 3.5 km/h 68% 0.0 mm 0 W/m2
09:16 13.2 °C 7.7 °C 996.8 hPa North 1.1 km/h 3.5 km/h 69% 0.0 mm 0 W/m2
09:21 13.1 °C 7.6 °C 996.8 hPa Calm   2.6 km/h 69% 0.0 mm 0 W/m2
09:26 13.0 °C 7.4 °C 996.8 hPa Calm   2.6 km/h 69% 0.0 mm 0 W/m2
09:31 13.1 °C 7.8 °C 996.8 hPa NW 5.0 km/h 7.2 km/h 70% 0.0 mm 0 W/m2
09:36 13.2 °C 8.3 °C 997.2 hPa NW 6.1 km/h 13.4 km/h 72% 0.0 mm 0 W/m2
09:41 13.6 °C 8.7 °C 996.8 hPa NW 9.7 km/h 17.2 km/h 72% 0.0 mm 0 W/m2
09:46 14.0 °C 8.8 °C 996.8 hPa NW 9.7 km/h 17.2 km/h 71% 0.0 mm 0 W/m2
09:51 14.1 °C 8.9 °C 997.2 hPa NNW 7.2 km/h 15.8 km/h 71% 0.0 mm 0 W/m2
09:56 14.1 °C 8.9 °C 996.8 hPa NNW 11.1 km/h 15.8 km/h 71% 0.0 mm 0 W/m2
10:01 14.0 °C 8.8 °C 996.8 hPa North 9.7 km/h 15.8 km/h 71% 0.0 mm 0 W/m2
10:04 14.0 °C 8.8 °C 996.8 hPa North 6.1 km/h 18.3 km/h 71% 0.0 mm 0 W/m2
10:09 14.1 °C 8.7 °C 996.8 hPa NW 6.1 km/h 18.3 km/h 70% 0.0 mm 0 W/m2
10:14 13.9 °C 8.9 °C 997.2 hPa WNW 3.5 km/h 14.8 km/h 72% 0.0 mm 0 W/m2
10:19 13.8 °C 8.8 °C 997.2 hPa WNW 2.6 km/h 7.2 km/h 72% 0.0 mm 0 W/m2
10:24 13.6 °C 9.1 °C 997.2 hPa NNW 1.1 km/h 7.2 km/h 74% 0.0 mm 0 W/m2
10:29 13.5 °C 9.2 °C 997.2 hPa NNW 2.6 km/h 8.7 km/h 75% 0.0 mm 0 W/m2
10:34 13.4 °C 9.3 °C 997.5 hPa NW 2.6 km/h 8.7 km/h 76% 0.0 mm 0 W/m2
10:39 13.3 °C 9.2 °C 997.2 hPa NNW 2.6 km/h 7.2 km/h 76% 0.0 mm 0 W/m2
10:44 13.3 °C 9.3 °C 997.5 hPa NNW 5.0 km/h 7.2 km/h 77% 0.0 mm 0 W/m2
10:49 13.2 °C 9.3 °C 997.2 hPa NNW 3.5 km/h 8.7 km/h 77% 0.0 mm 0 W/m2
10:54 13.2 °C 9.4 °C 997.2 hPa NNW 5.0 km/h 9.7 km/h 78% 0.0 mm 0 W/m2
10:59 13.3 °C 9.6 °C 997.2 hPa NNW 5.0 km/h 11.1 km/h 78% 0.0 mm 0 W/m2
11:04 13.4 °C 9.4 °C 997.5 hPa NNW 5.0 km/h 11.1 km/h 77% 0.0 mm 0 W/m2
11:09 13.4 °C 9.4 °C 997.5 hPa NNW 6.1 km/h 11.1 km/h 77% 0.0 mm 0 W/m2
11:14 13.3 °C 9.2 °C 997.5 hPa NW 3.5 km/h 9.7 km/h 76% 0.0 mm 0 W/m2
11:19 13.3 °C 9.2 °C 997.9 hPa NW 5.0 km/h 8.7 km/h 76% 0.0 mm 0 W/m2
11:24 13.3 °C 9.3 °C 997.9 hPa NW 5.0 km/h 8.7 km/h 77% 0.0 mm 0 W/m2
11:29 13.3 °C 9.3 °C 997.9 hPa NNW 3.5 km/h 8.7 km/h 77% 0.0 mm 0 W/m2
11:34 13.3 °C 9.6 °C 997.9 hPa NNW 6.1 km/h 8.7 km/h 78% 0.0 mm 0 W/m2
11:39 13.2 °C 9.4 °C 998.2 hPa North 5.0 km/h 9.7 km/h 78% 0.0 mm 0 W/m2
11:44 13.1 °C 9.3 °C 998.2 hPa North 5.0 km/h 9.7 km/h 78% 0.0 mm 0 W/m2
11:49 13.1 °C 9.3 °C 998.2 hPa North 2.6 km/h 9.7 km/h 78% 0.0 mm 0 W/m2
11:54 13.0 °C 9.3 °C 998.5 hPa North 6.1 km/h 7.2 km/h 78% 0.0 mm 0 W/m2
11:59 13.0 °C 9.3 °C 998.5 hPa NNW 1.1 km/h 8.7 km/h 78% 0.0 mm 0 W/m2
12:04 13.1 °C 9.2 °C 998.5 hPa NW 2.6 km/h 8.7 km/h 77% 0.0 mm 0 W/m2
12:09 13.1 °C 8.9 °C 998.5 hPa WNW 3.5 km/h 7.2 km/h 76% 0.0 mm 2 W/m2
12:14 13.2 °C 8.9 °C 998.9 hPa Calm   8.7 km/h 75% 0.0 mm 5 W/m2
12:19 13.2 °C 8.7 °C 998.9 hPa WNW 1.1 km/h 8.7 km/h 74% 0.0 mm 9 W/m2
12:24 13.2 °C 8.4 °C 998.9 hPa West 1.1 km/h 5.0 km/h 73% 0.0 mm 13 W/m2
12:29 13.2 °C 8.3 °C 999.2 hPa Calm   3.5 km/h 72% 0.0 mm 16 W/m2
12:34 13.2 °C 8.1 °C 999.2 hPa WSW 2.6 km/h 5.0 km/h 71% 0.0 mm 16 W/m2
12:39 13.4 °C 8.1 °C 999.5 hPa WSW 5.0 km/h 6.1 km/h 70% 0.0 mm 14 W/m2
12:44 13.4 °C 7.8 °C 999.5 hPa WSW 7.2 km/h 11.1 km/h 69% 0.0 mm 16 W/m2
12:49 13.4 °C 7.8 °C 999.5 hPa WSW 3.5 km/h 11.1 km/h 69% 0.0 mm 16 W/m2
12:54 13.4 °C 7.8 °C 999.5 hPa WSW 2.6 km/h 11.1 km/h 69% 0.0 mm 18 W/m2
12:59 13.3 °C 8.2 °C 999.5 hPa Calm   5.0 km/h 71% 0.0 mm 19 W/m2
13:04 13.3 °C 8.2 °C 999.9 hPa WNW 2.6 km/h 5.0 km/h 71% 0.0 mm 22 W/m2
13:09 13.3 °C 8.6 °C 999.9 hPa Calm   3.5 km/h 73% 0.0 mm 29 W/m2
13:14 13.4 °C 9.1 °C 999.9 hPa Calm   3.5 km/h 75% 0.0 mm 45 W/m2
13:19 13.7 °C 9.6 °C 1000.2 hPa WNW 1.1 km/h 6.1 km/h 76% 0.0 mm 58 W/m2
13:24 13.9 °C 9.7 °C 1000.2 hPa WNW 5.0 km/h 8.7 km/h 76% 0.0 mm 60 W/m2
13:29 14.1 °C 9.9 °C 1000.2 hPa WNW 3.5 km/h 8.7 km/h 76% 0.0 mm 78 W/m2
13:34 14.2 °C 9.8 °C 1000.2 hPa WNW 6.1 km/h 8.7 km/h 75% 0.0 mm 73 W/m2
13:39 14.3 °C 9.7 °C 1000.6 hPa WNW 5.0 km/h 9.7 km/h 74% 0.0 mm 80 W/m2
13:44 14.5 °C 9.5 °C 1000.6 hPa WNW 5.0 km/h 9.7 km/h 72% 0.0 mm 101 W/m2
13:49 14.6 °C 9.4 °C 1000.6 hPa WNW 6.1 km/h 9.7 km/h 71% 0.0 mm 109 W/m2
13:54 14.8 °C 9.6 °C 1000.6 hPa Calm   12.2 km/h 71% 0.0 mm 111 W/m2
13:59 15.0 °C 9.4 °C 1000.9 hPa WNW 3.5 km/h 12.2 km/h 69% 0.0 mm 115 W/m2
14:04 14.9 °C 9.1 °C 1000.9 hPa WNW 7.2 km/h 13.4 km/h 68% 0.0 mm 92 W/m2
14:09 14.8 °C 8.7 °C 1000.9 hPa West 3.5 km/h 13.4 km/h 67% 0.0 mm 84 W/m2
14:14 14.8 °C 8.7 °C 1000.9 hPa West 5.0 km/h 12.2 km/h 67% 0.0 mm 102 W/m2
14:19 15.1 °C 8.8 °C 1000.9 hPa West 3.5 km/h 9.7 km/h 66% 0.0 mm 274 W/m2
14:24 16.1 °C 9.3 °C 1001.2 hPa WNW 5.0 km/h 7.2 km/h 64% 0.0 mm 263 W/m2
14:29 16.5 °C 8.9 °C 1001.6 hPa West 7.2 km/h 11.1 km/h 61% 0.0 mm 94 W/m2
14:34 15.4 °C 7.4 °C 1001.6 hPa WSW 13.4 km/h 20.9 km/h 59% 0.0 mm 90 W/m2
14:39 14.8 °C 7.8 °C 1001.6 hPa WSW 3.5 km/h 20.9 km/h 63% 0.0 mm 94 W/m2
14:44 14.7 °C 7.9 °C 1001.9 hPa SW 11.1 km/h 17.2 km/h 64% 0.0 mm 97 W/m2
14:49 14.3 °C 8.1 °C 1001.6 hPa WSW 11.1 km/h 19.5 km/h 66% 0.0 mm 101 W/m2
14:54 14.3 °C 8.5 °C 1001.9 hPa WSW 6.1 km/h 19.5 km/h 68% 0.0 mm 128 W/m2
14:59 14.4 °C 8.8 °C 1001.9 hPa WSW 3.5 km/h 12.2 km/h 69% 0.0 mm 75 W/m2
15:04 14.4 °C 9.2 °C 1001.9 hPa WSW 5.0 km/h 17.2 km/h 71% 0.0 mm 51 W/m2
15:09 14.2 °C 9.6 °C 1001.9 hPa WSW 11.1 km/h 17.2 km/h 74% 0.0 mm 64 W/m2
15:14 14.0 °C 9.4 °C 1001.9 hPa WSW 17.2 km/h 24.5 km/h 74% 0.0 mm 102 W/m2
15:19 14.0 °C 9.4 °C 1001.9 hPa WSW 13.4 km/h 25.6 km/h 74% 0.0 mm 122 W/m2
15:24 14.2 °C 9.8 °C 1001.9 hPa WSW 15.8 km/h 30.6 km/h 75% 0.0 mm 160 W/m2
15:29 14.2 °C 10.1 °C 1002.3 hPa WSW 14.8 km/h 30.6 km/h 76% 0.0 mm 128 W/m2
15:34 14.2 °C 10.1 °C 1002.3 hPa WSW 18.3 km/h 31.7 km/h 76% 0.0 mm 125 W/m2
15:39 14.2 °C 10.1 °C 1002.3 hPa WSW 14.8 km/h 31.7 km/h 76% 0.0 mm 198 W/m2
15:44 14.3 °C 10.1 °C 1002.3 hPa WSW 23.3 km/h 34.3 km/h 76% 0.0 mm 168 W/m2
15:49 14.1 °C 10.3 °C 1002.6 hPa SW 15.8 km/h 34.3 km/h 78% 0.0 mm 189 W/m2
15:54 13.9 °C 10.7 °C 1002.6 hPa SW 15.8 km/h 34.3 km/h 81% 0.0 mm 166 W/m2
15:59 14.0 °C 10.8 °C 1002.9 hPa WSW 20.9 km/h 34.3 km/h 81% 0.0 mm 188 W/m2
16:04 13.8 °C 10.4 °C 1002.9 hPa WSW 14.8 km/h 34.3 km/h 80% 0.0 mm 201 W/m2
16:09 13.9 °C 10.7 °C 1002.9 hPa WSW 21.9 km/h 34.3 km/h 81% 0.0 mm 136 W/m2
16:14 13.7 °C 10.7 °C 1003.3 hPa West 17.2 km/h 35.6 km/h 82% 0.0 mm 170 W/m2
16:19 13.6 °C 10.9 °C 1003.3 hPa West 14.8 km/h 35.6 km/h 84% 0.0 mm 273 W/m2
16:24 13.8 °C 11.3 °C 1003.3 hPa WSW 18.3 km/h 31.7 km/h 85% 0.0 mm 165 W/m2
16:29 13.3 °C 10.8 °C 1003.6 hPa SW 19.5 km/h 31.7 km/h 85% 0.0 mm 105 W/m2
16:34 12.7 °C 10.4 °C 1003.9 hPa SW 14.8 km/h 33.1 km/h 86% 0.0 mm 176 W/m2
16:39 12.6 °C 10.8 °C 1003.9 hPa WSW 15.8 km/h 34.3 km/h 89% 0.3 mm 178 W/m2
16:44 12.7 °C 11.3 °C 1003.9 hPa SW 12.2 km/h 34.3 km/h 91% 0.3 mm 156 W/m2
16:49 12.9 °C 11.3 °C 1003.9 hPa SW 18.3 km/h 28.0 km/h 90% 0.3 mm 176 W/m2
16:54 13.1 °C 10.8 °C 1003.9 hPa SW 20.9 km/h 31.7 km/h 86% 0.3 mm 185 W/m2
16:59 13.4 °C 10.9 °C 1003.9 hPa SW 20.9 km/h 31.7 km/h 85% 0.3 mm 202 W/m2
17:04 13.6 °C 10.6 °C 1003.9 hPa WSW 14.8 km/h 29.4 km/h 82% 0.3 mm 268 W/m2
17:09 13.8 °C 10.6 °C 1004.3 hPa WSW 14.8 km/h 30.6 km/h 81% 0.3 mm 279 W/m2
17:14 14.0 °C 10.2 °C 1004.3 hPa WSW 23.3 km/h 30.6 km/h 78% 0.3 mm 234 W/m2
17:19 14.2 °C 10.4 °C 1004.6 hPa West 18.3 km/h 30.6 km/h 78% 0.3 mm 309 W/m2
17:24 14.4 °C 10.2 °C 1004.6 hPa WSW 13.4 km/h 29.4 km/h 76% 0.3 mm 317 W/m2
17:29 14.8 °C 10.6 °C 1004.6 hPa SW 14.8 km/h 30.6 km/h 76% 0.3 mm 342 W/m2
17:34 14.9 °C 10.5 °C 1004.6 hPa SW 29.4 km/h 34.3 km/h 75% 0.3 mm 408 W/m2
17:52 15.9 °C 10.0 °C 1005.0 hPa SW 20.9 km/h 34.3 km/h 68% 0.0 mm 816 W/m2
17:57 16.1 °C 10.2 °C 1005.3 hPa SW 17.2 km/h 34.3 km/h 68% 0.0 mm 529 W/m2
18:02 16.0 °C 9.4 °C 1005.6 hPa SW 19.5 km/h 37.8 km/h 65% 0.0 mm 985 W/m2
18:07 16.0 °C 9.7 °C 1005.3 hPa SW 20.9 km/h 37.8 km/h 66% 0.0 mm 940 W/m2
18:12 16.5 °C 9.9 °C 1005.6 hPa SW 24.5 km/h 35.6 km/h 65% 0.0 mm 940 W/m2
18:17 16.5 °C 9.7 °C 1005.6 hPa WSW 21.9 km/h 36.7 km/h 64% 0.0 mm 967 W/m2
18:22 16.6 °C 9.8 °C 1005.6 hPa WSW 21.9 km/h 36.7 km/h 64% 0.0 mm 999 W/m2
18:27 16.9 °C 9.8 °C 1005.6 hPa WSW 23.3 km/h 35.6 km/h 63% 0.0 mm 1044 W/m2
18:32 16.7 °C 9.4 °C 1005.6 hPa SW 18.3 km/h 37.8 km/h 62% 0.0 mm 1064 W/m2
18:37 17.2 °C 9.6 °C 1006.0 hPa SSW 21.9 km/h 37.8 km/h 61% 0.0 mm 1167 W/m2
18:42 17.3 °C 9.9 °C 1005.6 hPa SW 18.3 km/h 39.3 km/h 62% 0.0 mm 1147 W/m2
18:47 17.5 °C 9.7 °C 1006.0 hPa SW 19.5 km/h 39.3 km/h 60% 0.0 mm 355 W/m2
18:52 17.1 °C 9.1 °C 1006.0 hPa SW 17.2 km/h 36.7 km/h 59% 0.0 mm 698 W/m2
18:57 16.7 °C 9.4 °C 1006.3 hPa WSW 17.2 km/h 36.7 km/h 62% 0.0 mm 585 W/m2
19:02 16.7 °C 9.6 °C 1006.0 hPa SW 18.3 km/h 30.6 km/h 63% 0.0 mm 351 W/m2
19:07 16.2 °C 8.9 °C 1006.0 hPa SW 13.4 km/h 30.6 km/h 62% 0.0 mm 493 W/m2
19:12 16.5 °C 9.2 °C 1006.3 hPa SW 17.2 km/h 30.6 km/h 62% 0.0 mm 299 W/m2
19:17 16.2 °C 8.9 °C 1006.3 hPa SW 18.3 km/h 30.6 km/h 62% 0.0 mm 541 W/m2
19:22 16.8 °C 9.2 °C 1006.7 hPa SW 21.9 km/h 30.6 km/h 61% 0.0 mm 319 W/m2
19:27 16.4 °C 8.9 °C 1006.7 hPa SW 19.5 km/h 33.1 km/h 61% 0.0 mm 191 W/m2
19:32 15.6 °C 7.9 °C 1006.7 hPa SSW 25.6 km/h 34.3 km/h 60% 0.0 mm 143 W/m2
19:37 15.5 °C 8.5 °C 1006.7 hPa SSW 17.2 km/h 34.3 km/h 63% 0.0 mm 157 W/m2
19:42 15.5 °C 8.5 °C 1006.7 hPa SW 17.2 km/h 30.6 km/h 63% 0.0 mm 195 W/m2
19:47 15.6 °C 8.8 °C 1006.7 hPa SSW 15.8 km/h 30.6 km/h 64% 0.0 mm 179 W/m2
19:52 15.5 °C 8.7 °C 1007.0 hPa SSW 18.3 km/h 28.0 km/h 64% 0.0 mm 209 W/m2
19:57 15.6 °C 8.6 °C 1007.0 hPa SSW 14.8 km/h 30.6 km/h 63% 0.0 mm 341 W/m2
20:02 16.1 °C 9.1 °C 1006.7 hPa SSW 19.5 km/h 30.6 km/h 63% 0.0 mm 506 W/m2
20:07 16.4 °C 8.9 °C 1007.0 hPa SSW 17.2 km/h 29.4 km/h 61% 0.0 mm 525 W/m2
20:12 16.7 °C 8.7 °C 1007.0 hPa SSW 14.8 km/h 29.4 km/h 59% 0.0 mm 601 W/m2
20:17 17.3 °C 9.2 °C 1007.3 hPa SSW 18.3 km/h 30.6 km/h 59% 0.0 mm 510 W/m2
20:22 17.2 °C 8.6 °C 1007.3 hPa SSW 14.8 km/h 30.6 km/h 57% 0.0 mm 325 W/m2
20:27 16.5 °C 8.9 °C 1007.7 hPa SW 19.5 km/h 27.0 km/h 61% 0.0 mm 340 W/m2
20:32 16.5 °C 8.7 °C 1007.7 hPa SW 14.8 km/h 27.0 km/h 60% 0.0 mm 407 W/m2
20:37 16.5 °C 8.4 °C 1007.7 hPa SSW 9.7 km/h 27.0 km/h 59% 0.0 mm 474 W/m2
20:42 16.7 °C 9.4 °C 1007.7 hPa SSW 20.9 km/h 27.0 km/h 62% 0.0 mm 314 W/m2
20:47 16.4 °C 9.3 °C 1007.7 hPa SW 12.2 km/h 27.0 km/h 63% 0.0 mm 276 W/m2
20:52 16.3 °C 9.3 °C 1008.0 hPa SW 17.2 km/h 27.0 km/h 63% 0.0 mm 453 W/m2
20:57 16.9 °C 9.8 °C 1008.0 hPa SSW 8.7 km/h 23.3 km/h 63% 0.0 mm 506 W/m2
21:02 16.9 °C 9.8 °C 1008.0 hPa SSW 19.5 km/h 27.0 km/h 63% 0.0 mm 825 W/m2
21:07 17.4 °C 9.8 °C 1008.0 hPa SSW 15.8 km/h 28.0 km/h 61% 0.0 mm 832 W/m2
21:12 17.7 °C 9.3 °C 1008.0 hPa SSW 17.2 km/h 31.7 km/h 58% 0.0 mm 785 W/m2
21:17 17.5 °C 9.9 °C 1008.4 hPa South 13.4 km/h 31.7 km/h 61% 0.0 mm 807 W/m2
21:22 17.6 °C 9.0 °C 1008.4 hPa SSW 15.8 km/h 25.6 km/h 57% 0.0 mm 448 W/m2
21:27 17.4 °C 9.3 °C 1008.4 hPa SSW 11.1 km/h 27.0 km/h 59% 0.0 mm 271 W/m2
21:32 17.8 °C 9.7 °C 1008.4 hPa SSW 14.8 km/h 27.0 km/h 59% 0.0 mm 709 W/m2
21:37 17.9 °C 9.6 °C 1008.4 hPa SSW 12.2 km/h 25.6 km/h 58% 0.0 mm 546 W/m2
21:42 17.9 °C 9.3 °C 1008.4 hPa SSW 12.2 km/h 28.0 km/h 57% 0.0 mm 428 W/m2
21:47 17.7 °C 9.1 °C 1008.4 hPa SSW 19.5 km/h 28.0 km/h 57% 0.0 mm 356 W/m2
21:52 17.5 °C 9.2 °C 1008.7 hPa SSW 15.8 km/h 27.0 km/h 58% 0.0 mm 289 W/m2
22:12 17.1 °C 9.1 °C 1008.7 hPa SSW 18.3 km/h 27.0 km/h 59% 0.0 mm 265 W/m2
22:17 16.7 °C 8.4 °C 1009.0 hPa SSW 15.8 km/h 28.0 km/h 58% 0.0 mm 264 W/m2
22:22 16.7 °C 8.4 °C 1009.0 hPa SSW 17.2 km/h 28.0 km/h 58% 0.0 mm 271 W/m2
22:27 16.9 °C 8.6 °C 1009.0 hPa SSW 17.2 km/h 24.5 km/h 58% 0.0 mm 344 W/m2
22:32 16.9 °C 8.6 °C 1009.0 hPa SSW 12.2 km/h 25.6 km/h 58% 0.0 mm 375 W/m2
22:37 17.2 °C 8.1 °C 1009.0 hPa South 12.2 km/h 25.6 km/h 55% 0.0 mm 424 W/m2
22:42 17.5 °C 8.4 °C 1009.0 hPa South 17.2 km/h 25.6 km/h 55% 0.0 mm 456 W/m2
22:47 17.9 °C 8.4 °C 1009.0 hPa South 15.8 km/h 28.0 km/h 54% 0.0 mm 605 W/m2
22:52 17.9 °C 8.2 °C 1008.7 hPa SSW 19.5 km/h 28.0 km/h 53% 0.0 mm 579 W/m2
22:57 18.2 °C 8.7 °C 1008.7 hPa SSW 8.7 km/h 28.0 km/h 54% 0.0 mm 552 W/m2
23:02 18.7 °C 8.4 °C 1008.7 hPa South 15.8 km/h 24.5 km/h 51% 0.0 mm 543 W/m2
23:07 18.4 °C 8.7 °C 1009.0 hPa South 15.8 km/h 24.5 km/h 53% 0.0 mm 543 W/m2
23:12 18.3 °C 8.0 °C 1009.0 hPa South 17.2 km/h 24.5 km/h 51% 0.0 mm 544 W/m2
23:17 18.3 °C 8.6 °C 1009.4 hPa South 20.9 km/h 25.6 km/h 53% 0.0 mm 579 W/m2
23:22 18.3 °C 8.0 °C 1009.4 hPa South 15.8 km/h 25.6 km/h 51% 0.0 mm 458 W/m2
23:27 18.1 °C 8.7 °C 1009.4 hPa South 11.1 km/h 25.6 km/h 54% 0.0 mm 458 W/m2
23:32 17.8 °C 8.4 °C 1009.4 hPa South 13.4 km/h 24.5 km/h 54% 0.0 mm 259 W/m2
23:37 17.7 °C 8.0 °C 1009.4 hPa South 8.7 km/h 24.5 km/h 53% 0.0 mm 230 W/m2
23:54 17.1 °C 8.3 °C 1009.4 hPa South 11.1 km/h 18.3 km/h 56% 0.0 mm 159 W/m2
23:59 16.7 °C 8.4 °C 1009.4 hPa South 15.8 km/h 21.9 km/h 58% 0.0 mm 127 W/m2
Northern Hawkes Bay. New Zealand Historic Data
Compliments of Weather Underground - 2 mb